Coupeville, Washington
Current Conditions -  °F | °C
As of 2:56 PM on Thursday 18 Dec 2014 (Local Time) from KNUW Reporting Station
Overcast Overcast  
Wind Chill: 51°   Ceiling: 3300
Heat Index: 51°   Visibility: 10mi
Dew Point: 42°   Wind: 17mph
Humidity: 71%   Direction: 130°SE
Pressure: 29.76"   Gusts: 25mph
Location:  48.22°N, 122.69°W
Report Text: KNUW 182256Z 13015G22KT 10SM BKN033 BKN070 OVC090 11/06 A2976 RMK AO2 PK WND 13029/2215 RAE16 SLP082 P0000 T01060056 VISNO E $
Loading
Personal Weather Stations






























Interactive Weather Map New forecast layout! Learn more

10-Day Weather Forecast

Advertisements
Track Severe Weather on mobile